Time;durP1;ratioP1;P1;durP2;ratioP2;P2;SDS_P1;SDS_P2;PMS_P1;PMS_P2;Temp;Humidity;BMP_temperature;BMP_pressure;BME280_temperature;BME280_humidity;BME280_pressure;Samples;Min_cycle;Max_cycle;Signal;HPM_P1;HPM_P2
2021/03/15 00:01:47;;;;;;;24.77;14.90;;;6.20;99.90;;;;;;4190537;28;20486;-67
2021/03/15 00:03:48;;;;;;;27.60;16.43;;;6.20;99.90;;;;;;4192672;28;20033;-66
2021/03/15 00:05:49;;;;;;;26.07;16.43;;;6.20;99.90;;;;;;4191335;28;20435;-66
2021/03/15 00:07:50;;;;;;;29.00;17.13;;;6.20;99.90;;;;;;4191667;28;20078;-66
2021/03/15 00:09:51;;;;;;;31.70;17.20;;;6.20;99.90;;;;;;4190018;28;20029;-66
2021/03/15 00:11:53;;;;;;;32.23;18.60;;;6.20;99.90;;;;;;4190835;28;20082;-64
2021/03/15 00:13:54;;;;;;;35.03;19.47;;;6.10;99.90;;;;;;4190576;28;20281;-64
2021/03/15 00:15:57;;;;;;;27.53;17.60;;;6.20;99.90;;;;;;4191715;28;20114;-65
2021/03/15 00:17:58;;;;;;;26.60;16.93;;;6.20;99.90;;;;;;4190631;28;20078;-67
2021/03/15 00:19:59;;;;;;;23.00;14.33;;;6.20;99.90;;;;;;4191057;28;20029;-67
2021/03/15 00:22:00;;;;;;;23.60;15.60;;;6.20;99.90;;;;;;4191061;28;20534;-65
2021/03/15 00:24:01;;;;;;;22.40;13.73;;;6.10;99.90;;;;;;4190524;28;20636;-64
2021/03/15 00:26:03;;;;;;;19.90;12.03;;;6.10;99.90;;;;;;4191368;28;20093;-66
2021/03/15 00:28:04;;;;;;;24.73;14.10;;;6.20;99.90;;;;;;4189889;28;20036;-65
2021/03/15 00:30:07;;;;;;;22.30;13.90;;;6.30;99.90;;;;;;4190610;28;20113;-64
2021/03/15 00:32:09;;;;;;;19.77;12.20;;;6.30;99.90;;;;;;4189733;28;20032;-65
2021/03/15 00:34:10;;;;;;;24.90;13.20;;;6.30;99.90;;;;;;4191621;28;20036;-68
2021/03/15 00:36:11;;;;;;;20.73;13.50;;;6.30;99.90;;;;;;4189980;28;20045;-66
2021/03/15 00:38:12;;;;;;;21.67;13.13;;;6.40;99.90;;;;;;4191328;28;20086;-65
2021/03/15 00:40:17;;;;;;;25.20;15.87;;;6.40;99.90;;;;;;4189965;28;20094;-65
2021/03/15 00:42:18;;;;;;;26.77;16.90;;;6.40;99.90;;;;;;4191581;28;20040;-65
2021/03/15 00:44:19;;;;;;;25.77;14.47;;;6.40;99.90;;;;;;4190327;28;20033;-68
2021/03/15 00:46:20;;;;;;;20.43;13.10;;;6.50;99.90;;;;;;4190917;28;20063;-65
2021/03/15 00:48:21;;;;;;;18.73;12.87;;;6.40;99.90;;;;;;4189975;28;20044;-67
2021/03/15 00:50:40;;;;;;;23.67;12.83;;;6.40;99.90;;;;;;4193344;28;20024;-64
2021/03/15 00:52:41;;;;;;;19.77;11.93;;;6.40;99.90;;;;;;4207098;28;20086;-65
2021/03/15 00:54:42;;;;;;;22.47;14.27;;;6.50;99.90;;;;;;4207428;28;20029;-65
2021/03/15 00:56:43;;;;;;;25.90;14.87;;;6.50;99.90;;;;;;4204520;28;20489;-67
2021/03/15 00:58:44;;;;;;;22.53;15.20;;;6.60;99.90;;;;;;4206421;28;20093;-67
2021/03/15 01:00:46;;;;;;;26.20;16.30;;;6.60;99.90;;;;;;4207901;28;20024;-66
2021/03/15 01:02:48;;;;;;;29.10;16.03;;;6.60;99.90;;;;;;4205839;28;20070;-64
2021/03/15 01:04:49;;;;;;;24.20;13.87;;;6.60;99.90;;;;;;4208048;28;20017;-67
2021/03/15 01:06:50;;;;;;;29.37;16.03;;;6.70;99.90;;;;;;4206213;28;20036;-66
2021/03/15 01:08:51;;;;;;;20.87;13.97;;;6.70;99.90;;;;;;4207699;28;20032;-65
2021/03/15 01:10:52;;;;;;;19.63;12.97;;;6.60;99.90;;;;;;4206187;28;20089;-64
2021/03/15 01:12:54;;;;;;;21.67;13.83;;;6.60;99.90;;;;;;4197831;28;20029;-66
2021/03/15 01:14:55;;;;;;;21.67;13.73;;;6.60;99.90;;;;;;4189852;28;20036;-64
2021/03/15 01:16:56;;;;;;;24.63;13.60;;;6.60;99.90;;;;;;4190890;28;20551;-65
2021/03/15 01:18:57;;;;;;;22.57;13.40;;;6.60;99.90;;;;;;4189800;28;21015;-64
2021/03/15 01:20:59;;;;;;;21.93;12.50;;;6.60;99.90;;;;;;4190923;28;20028;-66
2021/03/15 01:23:00;;;;;;;22.63;13.57;;;6.60;99.90;;;;;;4189273;28;20121;-66
2021/03/15 01:25:03;;;;;;;21.73;12.57;;;6.50;99.90;;;;;;4190409;28;20078;-68
2021/03/15 01:27:05;;;;;;;20.57;12.80;;;6.60;99.90;;;;;;4190065;28;20009;-67
2021/03/15 01:29:06;;;;;;;23.43;14.33;;;6.60;99.90;;;;;;4189748;28;20028;-65
2021/03/15 01:31:07;;;;;;;25.50;14.77;;;6.60;99.90;;;;;;4190198;28;20085;-65
2021/03/15 01:33:08;;;;;;;23.83;13.97;;;6.60;99.90;;;;;;4189990;28;20765;-66
2021/03/15 01:35:10;;;;;;;20.97;14.03;;;6.60;99.90;;;;;;4190210;28;20037;-67
2021/03/15 01:37:11;;;;;;;21.63;13.43;;;6.70;99.90;;;;;;4189444;28;20090;-65
2021/03/15 01:39:13;;;;;;;18.87;12.50;;;6.60;99.90;;;;;;4190722;28;20075;-68
2021/03/15 01:41:14;;;;;;;21.63;13.43;;;6.60;99.90;;;;;;4189175;28;20488;-64
2021/03/15 01:43:15;;;;;;;21.20;13.60;;;6.70;99.90;;;;;;4188924;28;20055;-68
2021/03/15 01:45:16;;;;;;;26.47;14.70;;;6.70;99.90;;;;;;4188919;28;20097;-65
2021/03/15 01:47:18;;;;;;;30.00;17.63;;;6.70;99.90;;;;;;4190616;28;20055;-66
2021/03/15 01:49:20;;;;;;;24.60;15.57;;;6.60;99.90;;;;;;4189228;28;20028;-68
2021/03/15 01:51:21;;;;;;;27.30;17.10;;;6.60;99.90;;;;;;4189901;28;20032;-65
2021/03/15 01:53:23;;;;;;;25.40;15.53;;;6.60;99.90;;;;;;4189648;28;20868;-66
2021/03/15 01:55:24;;;;;;;23.33;14.87;;;6.50;99.90;;;;;;4189577;28;20496;-66
2021/03/15 01:57:26;;;;;;;28.50;16.00;;;6.50;99.90;;;;;;4188524;28;20075;-65
2021/03/15 01:59:27;;;;;;;29.53;16.23;;;6.50;99.90;;;;;;4188733;28;20053;-65
2021/03/15 02:01:28;;;;;;;24.23;16.17;;;6.50;99.90;;;;;;4189794;28;20497;-69
2021/03/15 02:03:31;;;;;;;25.87;16.83;;;6.50;99.90;;;;;;4189435;28;20024;-65
2021/03/15 02:05:34;;;;;;;29.40;18.33;;;6.40;99.90;;;;;;4190187;28;20032;-66
2021/03/15 02:07:35;;;;;;;27.97;17.73;;;6.40;99.90;;;;;;4188922;28;20021;-65
2021/03/15 02:09:36;;;;;;;28.53;17.87;;;6.40;99.90;;;;;;4190470;28;20079;-65
2021/03/15 02:11:58;;;;;;;29.27;17.93;;;6.30;99.90;;;;;;4188096;28;20029;-65
2021/03/15 02:14:17;;;;;;;26.77;17.40;;;6.30;99.90;;;;;;4190069;28;20142;-65
2021/03/15 02:16:40;;;;;;;28.53;17.10;;;6.30;99.90;;;;;;4189015;28;20021;-65
2021/03/15 02:19:00;;;;;;;28.57;17.40;;;6.30;99.90;;;;;;4189047;28;20036;-64
2021/03/15 02:21:26;;;;;;;30.57;18.23;;;6.30;99.90;;;;;;4189301;28;20040;-64
2021/03/15 02:23:35;;;;;;;30.03;17.27;;;6.20;99.90;;;;;;4188849;28;20265;-65
2021/03/15 02:25:39;;;;;;;30.10;17.93;;;6.20;99.90;;;;;;4189426;28;20549;-65
2021/03/15 02:27:55;;;;;;;32.63;18.63;;;6.20;99.90;;;;;;4188805;28;20028;-66
2021/03/15 02:30:22;;;;;;;30.30;17.63;;;6.20;99.90;;;;;;4189775;28;20032;-66
2021/03/15 02:32:51;;;;;;;27.17;17.93;;;6.20;99.90;;;;;;4188832;28;20089;-65
2021/03/15 02:34:58;;;;;;;28.50;18.17;;;6.20;99.90;;;;;;4188711;28;20472;-66
2021/03/15 02:37:05;;;;;;;27.73;17.77;;;6.30;99.90;;;;;;4188239;28;20086;-66
2021/03/15 02:39:11;;;;;;;30.23;17.87;;;6.30;99.90;;;;;;4189582;28;20480;-66
2021/03/15 02:41:17;;;;;;;24.70;15.70;;;6.30;99.90;;;;;;4187847;28;20045;-67
2021/03/15 02:43:24;;;;;;;27.13;17.60;;;6.30;99.90;;;;;;4189205;28;20082;-65
2021/03/15 02:45:26;;;;;;;28.87;16.90;;;6.30;99.90;;;;;;4188530;28;20028;-64
2021/03/15 02:47:28;;;;;;;28.77;18.60;;;6.30;99.90;;;;;;4189596;28;20070;-65
2021/03/15 02:49:35;;;;;;;28.07;17.00;;;6.30;99.90;;;;;;4188866;28;20024;-63
2021/03/15 02:51:38;;;;;;;26.33;17.00;;;6.30;99.90;;;;;;4188909;28;20040;-67
2021/03/15 02:53:41;;;;;;;31.03;17.60;;;6.30;99.90;;;;;;4188412;28;20041;-68
2021/03/15 02:55:45;;;;;;;34.30;18.07;;;6.30;99.90;;;;;;4188608;28;20098;-67
2021/03/15 02:57:47;;;;;;;34.93;18.47;;;6.30;99.90;;;;;;4188486;28;20143;-67
2021/03/15 02:59:52;;;;;;;32.70;18.23;;;6.30;99.90;;;;;;4188560;28;20097;-65
2021/03/15 03:01:54;;;;;;;28.20;18.13;;;6.30;99.90;;;;;;4188874;28;20032;-66
2021/03/15 03:03:57;;;;;;;33.47;18.83;;;6.30;99.90;;;;;;4189054;28;20032;-67
2021/03/15 03:06:01;;;;;;;30.53;18.90;;;6.20;99.90;;;;;;4189458;28;20024;-66
2021/03/15 03:08:05;;;;;;;31.43;18.97;;;6.20;99.90;;;;;;4185814;28;20106;-66
2021/03/15 03:10:08;;;;;;;31.83;18.63;;;6.20;99.90;;;;;;4189306;28;20028;-65
2021/03/15 03:12:11;;;;;;;31.40;19.13;;;6.20;99.90;;;;;;4188140;28;20121;-64
2021/03/15 03:14:13;;;;;;;35.37;20.20;;;6.20;99.90;;;;;;4187641;28;20044;-68
2021/03/15 03:16:14;;;;;;;35.50;18.87;;;6.20;99.90;;;;;;4188001;28;20086;-68
2021/03/15 03:18:17;;;;;;;30.90;19.20;;;6.20;99.90;;;;;;4189517;28;20036;-65
2021/03/15 03:20:20;;;;;;;31.50;17.73;;;6.30;99.90;;;;;;4191197;28;20037;-67
2021/03/15 03:22:23;;;;;;;32.93;18.30;;;6.30;99.90;;;;;;4192100;28;20036;-65
2021/03/15 03:24:26;;;;;;;35.07;19.10;;;6.30;99.90;;;;;;4189627;28;20040;-65
2021/03/15 03:26:29;;;;;;;31.47;18.13;;;6.30;99.90;;;;;;4192377;28;20025;-64
2021/03/15 03:28:32;;;;;;;34.57;19.97;;;6.30;99.90;;;;;;4191920;28;20625;-65
2021/03/15 03:30:38;;;;;;;30.43;17.27;;;6.30;99.90;;;;;;4192321;28;20032;-65
2021/03/15 03:32:43;;;;;;;31.33;18.70;;;6.30;99.90;;;;;;4191961;28;20029;-65
2021/03/15 03:34:44;;;;;;;30.27;17.57;;;6.30;99.90;;;;;;4192285;28;20032;-64
2021/03/15 03:36:45;;;;;;;33.80;18.73;;;6.30;99.90;;;;;;4191904;28;20078;-67
2021/03/15 03:38:47;;;;;;;30.87;18.90;;;6.30;99.90;;;;;;4190651;28;20040;-65
2021/03/15 03:40:48;;;;;;;31.07;19.00;;;6.30;99.90;;;;;;4191750;28;20114;-69
2021/03/15 03:42:49;;;;;;;30.97;19.67;;;6.30;99.90;;;;;;4191453;28;20028;-67
2021/03/15 03:44:54;;;;;;;30.40;19.10;;;6.30;99.90;;;;;;4191184;28;20053;-65
2021/03/15 03:46:55;;;;;;;35.30;21.27;;;6.30;99.90;;;;;;4190811;28;20068;-66
2021/03/15 03:48:57;;;;;;;33.90;20.70;;;6.30;99.90;;;;;;4191940;28;20040;-66
2021/03/15 03:50:58;;;;;;;32.33;19.67;;;6.20;99.90;;;;;;4191315;28;20082;-65
2021/03/15 03:53:08;;;;;;;35.33;20.80;;;6.20;99.90;;;;;;4192329;28;20434;-64
2021/03/15 03:55:14;;;;;;;37.05;21.63;;;6.20;99.90;;;;;;4190859;28;20457;-65
2021/03/15 03:57:27;;;;;;;38.43;21.27;;;6.20;99.90;;;;;;4192210;28;20476;-64
2021/03/15 03:59:32;;;;;;;38.37;21.20;;;6.30;99.90;;;;;;4191218;28;20021;-65
2021/03/15 04:01:41;;;;;;;36.70;20.83;;;6.20;99.90;;;;;;4192304;28;20024;-66
2021/03/15 04:03:46;;;;;;;35.67;22.13;;;6.20;99.90;;;;;;4191248;28;20086;-67
2021/03/15 04:05:55;;;;;;;37.40;21.43;;;6.20;99.90;;;;;;4192165;28;20767;-65
2021/03/15 04:08:01;;;;;;;39.97;22.33;;;6.20;99.90;;;;;;4191144;28;20426;-67
2021/03/15 04:10:08;;;;;;;39.77;22.10;;;6.20;99.90;;;;;;4192266;28;20028;-65
2021/03/15 04:12:13;;;;;;;43.87;23.40;;;6.20;99.90;;;;;;4190575;28;20090;-66
2021/03/15 04:14:21;;;;;;;43.97;22.73;;;6.10;99.90;;;;;;4192232;28;20028;-66
2021/03/15 04:16:38;;;;;;;38.77;22.87;;;6.10;99.90;;;;;;4190875;28;20078;-66
2021/03/15 04:18:46;;;;;;;42.73;23.07;;;6.10;99.90;;;;;;4191650;28;20096;-66
2021/03/15 04:20:50;;;;;;;40.43;22.43;;;6.10;99.90;;;;;;4190480;28;20032;-65
2021/03/15 04:22:55;;;;;;;37.53;22.30;;;6.00;99.90;;;;;;4190968;28;20033;-66
2021/03/15 04:25:00;;;;;;;44.47;23.83;;;6.00;99.90;;;;;;4190528;28;20070;-65
2021/03/15 04:27:01;;;;;;;43.83;25.40;;;5.90;99.90;;;;;;4189527;28;20036;-66
2021/03/15 04:29:04;;;;;;;43.77;24.97;;;5.90;99.90;;;;;;4190413;28;20028;-65
2021/03/15 04:31:09;;;;;;;39.63;24.63;;;5.90;99.90;;;;;;4190117;28;20346;-66
2021/03/15 04:33:11;;;;;;;48.77;26.60;;;5.90;99.90;;;;;;4191012;28;20036;-65
2021/03/15 04:35:13;;;;;;;44.83;24.97;;;5.90;99.90;;;;;;4190645;28;20052;-64
2021/03/15 04:37:15;;;;;;;40.40;23.83;;;5.90;99.90;;;;;;4190771;28;20311;-64
2021/03/15 04:39:17;;;;;;;41.67;23.60;;;5.90;99.90;;;;;;4190831;28;20564;-65
2021/03/15 04:41:19;;;;;;;44.23;25.03;;;6.00;99.90;;;;;;4191035;28;20753;-66
2021/03/15 04:43:21;;;;;;;41.60;25.27;;;6.00;99.90;;;;;;4190208;28;20032;-68
2021/03/15 04:45:23;;;;;;;41.77;23.73;;;6.00;99.90;;;;;;4191227;28;20507;-65
2021/03/15 04:47:24;;;;;;;40.00;23.37;;;6.10;99.90;;;;;;4189279;28;20032;-65
2021/03/15 04:49:26;;;;;;;39.23;22.80;;;6.10;99.90;;;;;;4191676;28;20099;-65
2021/03/15 04:51:28;;;;;;;38.80;21.87;;;6.10;99.90;;;;;;4189903;28;20496;-64
2021/03/15 04:53:31;;;;;;;39.97;23.73;;;6.10;99.90;;;;;;4191953;28;20033;-65
2021/03/15 04:55:32;;;;;;;36.97;22.47;;;6.10;99.90;;;;;;4189650;28;20561;-65
2021/03/15 04:57:35;;;;;;;38.50;21.97;;;6.10;99.90;;;;;;4190934;28;20074;-64
2021/03/15 04:59:37;;;;;;;39.07;22.47;;;6.00;99.90;;;;;;4189814;28;20061;-66
2021/03/15 05:01:41;;;;;;;42.87;23.03;;;6.00;99.90;;;;;;4190336;28;20435;-66
2021/03/15 05:03:48;;;;;;;38.57;23.67;;;6.00;99.90;;;;;;4190197;28;20265;-64
2021/03/15 05:05:52;;;;;;;40.13;23.10;;;6.00;99.90;;;;;;4190369;28;20090;-65
2021/03/15 05:07:56;;;;;;;36.30;20.57;;;6.00;99.90;;;;;;4189910;28;20273;-69
2021/03/15 05:09:59;;;;;;;33.97;20.77;;;6.00;99.90;;;;;;4191175;28;20033;-65
2021/03/15 05:12:01;;;;;;;35.90;20.60;;;6.00;99.90;;;;;;4189505;28;20073;-66
2021/03/15 05:14:04;;;;;;;29.77;18.70;;;6.00;99.90;;;;;;4189834;28;20254;-65
2021/03/15 05:16:06;;;;;;;36.27;21.13;;;6.00;99.90;;;;;;4188938;28;20086;-65
2021/03/15 05:18:10;;;;;;;36.57;20.60;;;6.00;99.90;;;;;;4189994;28;20078;-64
2021/03/15 05:20:15;;;;;;;32.97;19.23;;;6.00;99.90;;;;;;4190486;28;20094;-65
2021/03/15 05:22:16;;;;;;;32.33;17.87;;;6.10;99.90;;;;;;4189464;28;20071;-64
2021/03/15 05:24:18;;;;;;;35.27;19.70;;;6.00;99.90;;;;;;4190396;28;20032;-65
2021/03/15 05:26:21;;;;;;;28.00;17.90;;;6.00;99.90;;;;;;4188917;28;20265;-68
2021/03/15 05:28:23;;;;;;;32.73;17.77;;;6.00;99.90;;;;;;4190081;28;20281;-64
2021/03/15 05:30:26;;;;;;;34.30;19.03;;;6.00;99.90;;;;;;4188727;28;20090;-65
2021/03/15 05:32:28;;;;;;;34.93;19.73;;;6.00;99.90;;;;;;4190690;28;20273;-66
2021/03/15 05:34:31;;;;;;;32.00;18.83;;;5.90;99.90;;;;;;4189548;28;20025;-67
2021/03/15 05:36:34;;;;;;;31.23;19.50;;;6.00;99.90;;;;;;4189981;28;20028;-65
2021/03/15 05:38:37;;;;;;;35.73;19.77;;;6.00;99.90;;;;;;4189752;28;20261;-65
2021/03/15 05:40:41;;;;;;;30.50;18.73;;;6.00;99.90;;;;;;4190100;28;20297;-66
2021/03/15 05:43:20;;;;;;;33.30;19.03;;;6.00;99.90;;;;;;4188518;28;20312;-67
2021/03/15 05:45:43;;;;;;;29.50;17.60;;;6.00;99.90;;;;;;4189475;28;20044;-66
2021/03/15 05:48:03;;;;;;;29.87;17.17;;;6.00;99.90;;;;;;4188782;28;20024;-63
2021/03/15 05:50:35;;;;;;;36.30;19.92;;;6.00;99.90;;;;;;4190443;28;20063;-65
2021/03/15 05:53:09;;;;;;;34.63;19.60;;;6.00;99.90;;;;;;4188458;28;20102;-70
2021/03/15 05:55:17;;;;;;;29.30;17.37;;;6.00;99.90;;;;;;4188938;28;20289;-65
2021/03/15 05:58:00;;;;;;;33.43;17.97;;;6.00;99.90;;;;;;4188198;28;20037;-65
2021/03/15 06:00:23;;;;;;;28.00;17.70;;;6.00;99.90;;;;;;4150644;28;20311;-66
2021/03/15 06:02:52;;;;;;;29.17;17.97;;;6.00;99.90;;;;;;4189111;28;20315;-65
2021/03/15 06:04:53;;;;;;;29.37;17.53;;;6.10;99.90;;;;;;4188393;28;20253;-67
2021/03/15 06:06:57;;;;;;;28.10;17.37;;;6.10;99.90;;;;;;4189815;28;20275;-65
2021/03/15 06:09:02;;;;;;;30.80;18.57;;;6.00;99.90;;;;;;4188502;28;20269;-65
2021/03/15 06:11:09;;;;;;;34.93;19.07;;;6.10;99.90;;;;;;4189581;28;20265;-67
2021/03/15 06:13:12;;;;;;;33.80;20.00;;;6.10;99.90;;;;;;4188071;28;20678;-66
2021/03/15 06:15:15;;;;;;;35.07;19.27;;;6.10;99.90;;;;;;4189201;28;20265;-65
2021/03/15 06:17:17;;;;;;;32.77;19.23;;;6.10;99.90;;;;;;4188142;28;20067;-65
2021/03/15 06:19:19;;;;;;;28.57;17.33;;;6.10;99.90;;;;;;4189175;28;20315;-65
2021/03/15 06:21:21;;;;;;;32.77;18.17;;;6.10;99.90;;;;;;4188094;28;20726;-64
2021/03/15 06:23:22;;;;;;;35.97;19.80;;;6.10;99.90;;;;;;4188918;28;20322;-65
2021/03/15 06:25:24;;;;;;;33.97;18.97;;;6.10;99.90;;;;;;4188487;28;20046;-64
2021/03/15 06:27:28;;;;;;;33.77;17.50;;;6.10;99.90;;;;;;4187907;28;20262;-64
2021/03/15 06:29:30;;;;;;;27.67;16.60;;;6.10;99.90;;;;;;4172755;28;20392;-66
2021/03/15 06:31:34;;;;;;;24.53;16.07;;;6.10;99.90;;;;;;4171948;28;20677;-65
2021/03/15 06:33:35;;;;;;;27.50;16.87;;;6.10;99.90;;;;;;4173412;28;20165;-66
2021/03/15 06:35:41;;;;;;;27.30;16.10;;;6.10;99.90;;;;;;4177345;28;20036;-69
2021/03/15 06:37:44;;;;;;;28.70;17.80;;;6.10;99.90;;;;;;4188865;28;20028;-69
2021/03/15 06:39:48;;;;;;;34.87;18.03;;;6.10;99.90;;;;;;4187388;28;20106;-68
2021/03/15 06:41:55;;;;;;;29.30;17.27;;;6.10;99.90;;;;;;4189119;28;21013;-70
2021/03/15 06:43:57;;;;;;;30.77;17.17;;;6.20;99.90;;;;;;4188033;28;20063;-66
2021/03/15 06:45:58;;;;;;;29.47;18.00;;;6.20;99.90;;;;;;4188605;28;21224;-67
2021/03/15 06:48:03;;;;;;;27.50;17.43;;;6.20;99.90;;;;;;4188036;28;20044;-64
2021/03/15 06:50:04;;;;;;;32.80;17.37;;;6.20;99.90;;;;;;4189328;28;20546;-62
2021/03/15 06:52:10;;;;;;;27.10;15.93;;;6.20;99.90;;;;;;4188007;28;20261;-65
2021/03/15 06:54:24;;;;;;;24.50;15.23;;;6.20;99.90;;;;;;4188023;28;20093;-66
2021/03/15 06:56:25;;;;;;;30.40;15.87;;;6.10;99.90;;;;;;4187474;28;20382;-66
2021/03/15 06:58:28;;;;;;;25.53;15.50;;;6.20;99.90;;;;;;4188620;28;20101;-65
2021/03/15 07:00:31;;;;;;;25.13;15.43;;;6.20;99.90;;;;;;4187444;28;20497;-63
2021/03/15 07:02:32;;;;;;;28.00;16.37;;;6.10;99.90;;;;;;4188993;28;20490;-66
2021/03/15 07:04:33;;;;;;;28.27;16.17;;;6.20;99.90;;;;;;4188569;28;20778;-63
2021/03/15 07:06:42;;;;;;;22.17;14.80;;;6.20;99.90;;;;;;4188229;28;20037;-63
2021/03/15 07:08:44;;;;;;;28.47;16.10;;;6.20;99.90;;;;;;4187761;28;20330;-64
2021/03/15 07:10:45;;;;;;;23.97;15.63;;;6.20;99.90;;;;;;4187992;28;20823;-64
2021/03/15 07:12:47;;;;;;;23.70;14.97;;;6.20;99.90;;;;;;4188593;28;20036;-64
2021/03/15 07:14:49;;;;;;;22.83;14.77;;;6.20;99.90;;;;;;4187603;28;20066;-64
2021/03/15 07:16:57;;;;;;;26.20;15.70;;;6.20;99.90;;;;;;4189034;28;20082;-64
2021/03/15 07:19:02;;;;;;;26.43;16.30;;;6.20;99.90;;;;;;4187572;28;21655;-64
2021/03/15 07:21:05;;;;;;;27.60;16.13;;;6.20;99.90;;;;;;4189138;28;20090;-65
2021/03/15 07:23:06;;;;;;;25.30;16.20;;;6.20;99.90;;;;;;4187798;28;20339;-64
2021/03/15 07:25:16;;;;;;;25.07;15.57;;;6.20;99.90;;;;;;4205635;28;20032;-64
2021/03/15 07:27:30;;;;;;;27.43;16.93;;;6.20;99.90;;;;;;4204518;28;20077;-64
2021/03/15 07:29:32;;;;;;;24.57;14.77;;;6.20;99.90;;;;;;4205313;28;20040;-64
2021/03/15 07:31:34;;;;;;;26.50;13.60;;;6.30;99.90;;;;;;4204529;28;20101;-65
2021/03/15 07:33:35;;;;;;;22.87;14.40;;;6.20;99.90;;;;;;4206297;28;20090;-64
2021/03/15 07:35:38;;;;;;;25.20;13.73;;;6.20;99.90;;;;;;4196618;28;20032;-64
2021/03/15 07:37:42;;;;;;;22.93;13.90;;;6.30;99.90;;;;;;4189101;28;20037;-64
2021/03/15 07:39:51;;;;;;;24.00;13.57;;;6.30;99.90;;;;;;4187290;28;20074;-64
2021/03/15 07:41:54;;;;;;;21.40;13.77;;;6.30;99.90;;;;;;4189067;28;20070;-65
2021/03/15 07:43:55;;;;;;;17.63;11.30;;;6.40;99.90;;;;;;4187480;28;20490;-65
2021/03/15 07:45:56;;;;;;;22.00;12.20;;;6.40;99.90;;;;;;4189045;28;20048;-66
2021/03/15 07:48:13;;;;;;;18.27;11.73;;;6.40;99.90;;;;;;4187271;28;20037;-63
2021/03/15 07:50:19;;;;;;;18.43;11.40;;;6.50;99.90;;;;;;4188809;28;20037;-63
2021/03/15 07:52:39;;;;;;;18.37;11.20;;;6.50;99.90;;;;;;4187022;28;20304;-64
2021/03/15 07:54:43;;;;;;;15.88;10.40;;;6.50;99.90;;;;;;4188611;28;20110;-64
2021/03/15 07:56:44;;;;;;;17.07;10.73;;;6.60;99.90;;;;;;4187433;28;20146;-64
2021/03/15 07:58:46;;;;;;;15.03;10.90;;;6.70;99.90;;;;;;4188693;28;20028;-64
2021/03/15 08:00:47;;;;;;;15.87;9.93;;;6.70;99.90;;;;;;4187504;28;20695;-66
2021/03/15 08:02:48;;;;;;;15.33;10.23;;;6.80;99.90;;;;;;4188335;28;20028;-65
2021/03/15 08:04:51;;;;;;;16.43;10.67;;;6.80;99.90;;;;;;4188239;28;20036;-64
2021/03/15 08:06:52;;;;;;;15.90;9.80;;;6.90;99.90;;;;;;4189874;28;20083;-64
2021/03/15 08:08:53;;;;;;;16.83;10.37;;;6.90;99.90;;;;;;4191114;28;20562;-66
2021/03/15 08:10:56;;;;;;;15.90;10.03;;;7.00;99.90;;;;;;4190464;28;20078;-64
2021/03/15 08:12:58;;;;;;;10.40;7.23;;;7.00;99.90;;;;;;4190960;28;20041;-65
2021/03/15 08:15:08;;;;;;;12.00;8.50;;;7.00;99.90;;;;;;4190308;28;20145;-66
2021/03/15 08:17:11;;;;;;;14.27;8.93;;;7.00;99.90;;;;;;4190838;28;20033;-65
2021/03/15 08:19:18;;;;;;;15.70;9.23;;;7.00;99.90;;;;;;4189664;28;20036;-65
2021/03/15 08:21:27;;;;;;;13.43;8.90;;;7.00;99.90;;;;;;4191105;28;20493;-63
2021/03/15 08:23:37;;;;;;;14.50;8.97;;;7.00;99.90;;;;;;4190193;28;20032;-64
2021/03/15 08:25:42;;;;;;;14.43;8.93;;;7.00;99.90;;;;;;4191218;28;20104;-65
2021/03/15 08:27:43;;;;;;;11.33;8.17;;;7.00;99.90;;;;;;4189348;28;20040;-64
2021/03/15 08:29:47;;;;;;;14.03;8.57;;;6.90;99.90;;;;;;4190843;28;20090;-66
2021/03/15 08:31:50;;;;;;;11.87;8.43;;;6.90;99.90;;;;;;4190259;28;20029;-65
2021/03/15 08:33:52;;;;;;;11.27;8.63;;;6.90;99.90;;;;;;4191469;28;20063;-64
2021/03/15 08:35:55;;;;;;;16.33;9.40;;;6.90;99.90;;;;;;4190198;28;20052;-67
2021/03/15 08:37:58;;;;;;;14.53;9.43;;;6.90;99.90;;;;;;4190791;28;20033;-64
2021/03/15 08:39:59;;;;;;;18.23;10.07;;;6.80;99.90;;;;;;4189350;28;20040;-65
2021/03/15 08:42:06;;;;;;;14.73;9.87;;;6.80;99.90;;;;;;4188942;28;20447;-65
2021/03/15 08:44:07;;;;;;;17.13;10.40;;;6.80;99.90;;;;;;4189165;28;20036;-65
2021/03/15 08:46:18;;;;;;;15.77;9.37;;;6.80;99.90;;;;;;4190399;28;20074;-63
2021/03/15 08:48:40;;;;;;;16.30;11.10;;;6.70;99.90;;;;;;4189987;28;20453;-65
2021/03/15 08:50:46;;;;;;;13.80;9.60;;;6.60;99.90;;;;;;4176174;28;20090;-69
2021/03/15 08:52:47;;;;;;;15.63;10.50;;;6.60;99.90;;;;;;4189220;28;20476;-64
2021/03/15 08:54:48;;;;;;;17.97;11.43;;;6.60;99.90;;;;;;4190865;28;20078;-70
2021/03/15 08:56:49;;;;;;;21.53;10.60;;;6.60;99.90;;;;;;4189626;28;20075;-65
2021/03/15 08:58:53;;;;;;;16.93;11.73;;;6.60;99.90;;;;;;4189649;28;20472;-65
2021/03/15 09:00:57;;;;;;;20.10;12.63;;;6.60;99.90;;;;;;4190577;28;20036;-65
2021/03/15 09:02:58;;;;;;;21.37;13.43;;;6.60;99.90;;;;;;4189501;28;20430;-67
2021/03/15 09:05:23;;;;;;;17.17;11.17;;;6.60;99.90;;;;;;4190906;28;20033;-68
2021/03/15 09:07:36;;;;;;;20.07;12.23;;;6.60;99.90;;;;;;4190129;28;20273;-68
2021/03/15 09:09:37;;;;;;;18.53;12.50;;;6.60;99.90;;;;;;4186159;28;20032;-67
2021/03/15 09:11:38;;;;;;;29.90;15.00;;;6.60;99.90;;;;;;4189002;28;20484;-67
2021/03/15 09:13:39;;;;;;;20.93;14.73;;;6.60;99.90;;;;;;4187849;28;20511;-69
2021/03/15 09:15:42;;;;;;;21.17;13.10;;;6.60;99.90;;;;;;4189036;28;20036;-67
2021/03/15 09:17:43;;;;;;;21.57;14.17;;;6.70;99.90;;;;;;4187645;28;20037;-66
2021/03/15 09:19:47;;;;;;;20.23;13.17;;;6.70;99.90;;;;;;4189068;28;20051;-67
2021/03/15 09:21:51;;;;;;;19.77;13.23;;;6.80;99.90;;;;;;4187704;28;20094;-67
2021/03/15 09:23:58;;;;;;;19.63;11.63;;;6.90;99.90;;;;;;4188974;28;20074;-68
2021/03/15 09:26:25;;;;;;;16.23;11.03;;;7.00;99.90;;;;;;4189515;28;20431;-66
2021/03/15 09:28:26;;;;;;;19.07;11.73;;;7.10;99.90;;;;;;4179412;28;20094;-67
2021/03/15 09:30:35;;;;;;;23.73;13.03;;;7.10;99.90;;;;;;4190029;28;20086;-66
2021/03/15 09:32:38;;;;;;;21.47;13.23;;;7.10;99.90;;;;;;4188417;28;20790;-68
2021/03/15 09:34:40;;;;;;;17.30;11.57;;;7.10;99.90;;;;;;4188162;28;20106;-66
2021/03/15 09:36:44;;;;;;;20.33;13.17;;;7.10;99.90;;;;;;4188390;28;20036;-68
2021/03/15 09:38:46;;;;;;;21.57;14.23;;;7.20;99.90;;;;;;4189366;28;20434;-67
2021/03/15 09:40:53;;;;;;;21.57;12.73;;;7.20;99.90;;;;;;4187323;28;20036;-66
2021/03/15 09:42:56;;;;;;;19.20;12.23;;;7.30;99.90;;;;;;4189502;28;20108;-67
2021/03/15 09:44:57;;;;;;;24.13;13.43;;;7.30;99.90;;;;;;4188025;28;20028;-68
2021/03/15 09:47:00;;;;;;;19.17;11.13;;;7.40;99.90;;;;;;4189233;28;20098;-66
2021/03/15 09:49:01;;;;;;;16.50;10.43;;;7.30;99.90;;;;;;4188070;28;20205;-68
2021/03/15 09:51:04;;;;;;;14.73;10.03;;;7.30;99.90;;;;;;4187886;28;20082;-67
2021/03/15 09:53:13;;;;;;;17.40;10.37;;;7.30;99.90;;;;;;4187638;28;20045;-67
2021/03/15 09:55:15;;;;;;;13.93;9.47;;;7.30;99.90;;;;;;4188180;28;20048;-67
2021/03/15 09:57:17;;;;;;;14.37;10.00;;;7.20;99.90;;;;;;4188108;28;20040;-67
2021/03/15 09:59:18;;;;;;;12.20;9.10;;;7.20;99.90;;;;;;4188330;28;20090;-62
2021/03/15 10:01:21;;;;;;;16.00;10.33;;;7.20;99.90;;;;;;4189159;28;20090;-65
2021/03/15 10:03:24;;;;;;;14.87;9.83;;;7.30;99.90;;;;;;4188049;28;20470;-71
2021/03/15 10:05:27;;;;;;;17.03;10.70;;;7.30;99.90;;;;;;4189426;28;20078;-70
2021/03/15 10:07:28;;;;;;;22.30;11.27;;;7.30;99.90;;;;;;4187988;28;20070;-73
2021/03/15 10:09:30;;;;;;;16.63;11.27;;;7.30;99.90;;;;;;4189632;28;20028;-70
2021/03/15 10:11:40;;;;;;;16.33;10.57;;;7.40;99.90;;;;;;4187193;28;20472;-71
2021/03/15 10:13:41;;;;;;;18.50;12.13;;;7.40;99.90;;;;;;4188846;28;20036;-69
2021/03/15 10:15:45;;;;;;;20.70;12.90;;;7.40;99.90;;;;;;4185991;28;20044;-67
2021/03/15 10:17:47;;;;;;;21.30;13.00;;;7.50;99.90;;;;;;4189048;28;20407;-68
2021/03/15 10:19:48;;;;;;;18.27;10.70;;;7.50;99.90;;;;;;4187112;28;20956;-66
2021/03/15 10:21:50;;;;;;;23.17;12.73;;;7.50;99.90;;;;;;4188548;28;20052;-66
2021/03/15 10:23:51;;;;;;;18.53;10.67;;;7.60;99.90;;;;;;4187262;28;20110;-65
2021/03/15 10:25:57;;;;;;;14.00;9.30;;;7.70;99.90;;;;;;4187781;28;20431;-67
2021/03/15 10:27:58;;;;;;;14.60;10.17;;;7.60;99.90;;;;;;4187396;28;20036;-66
2021/03/15 10:30:08;;;;;;;17.10;10.80;;;7.60;99.90;;;;;;4188517;28;20032;-66
2021/03/15 10:32:10;;;;;;;18.08;10.82;;;7.60;99.90;;;;;;4188158;28;20082;-63
2021/03/15 10:34:11;;;;;;;17.47;11.00;;;7.60;99.90;;;;;;4188482;28;20029;-64
2021/03/15 10:36:20;;;;;;;18.30;11.13;;;7.60;99.90;;;;;;4187060;28;20044;-66
2021/03/15 10:38:22;;;;;;;17.50;10.77;;;7.60;99.90;;;;;;4171890;28;20037;-69
2021/03/15 10:40:24;;;;;;;13.40;10.03;;;7.70;99.90;;;;;;4171803;28;20078;-66
2021/03/15 10:42:26;;;;;;;14.10;10.13;;;7.60;99.90;;;;;;4187730;28;20485;-66